sensor_id;sensor_type;location;lat;lon;timestamp;P1;durP1;ratioP1;P2;durP2;ratioP2
12567;SDS011;6349;50.904;6.136;2022-10-16T00:00:12;0.80;;;0.80;;
12567;SDS011;6349;50.904;6.136;2022-10-16T00:02:13;1.25;;;1.15;;
12567;SDS011;6349;50.904;6.136;2022-10-16T00:04:14;1.20;;;1.10;;
12567;SDS011;6349;50.904;6.136;2022-10-16T00:06:16;1.15;;;1.05;;
12567;SDS011;6349;50.904;6.136;2022-10-16T00:08:19;1.00;;;0.90;;
12567;SDS011;6349;50.904;6.136;2022-10-16T00:10:21;0.80;;;0.80;;
12567;SDS011;6349;50.904;6.136;2022-10-16T00:12:23;0.70;;;0.70;;
12567;SDS011;6349;50.904;6.136;2022-10-16T00:14:24;0.95;;;0.90;;
12567;SDS011;6349;50.904;6.136;2022-10-16T00:16:25;2.55;;;1.00;;
12567;SDS011;6349;50.904;6.136;2022-10-16T00:18:27;1.23;;;0.90;;
12567;SDS011;6349;50.904;6.136;2022-10-16T00:20:29;1.65;;;1.00;;
12567;SDS011;6349;50.904;6.136;2022-10-16T00:22:31;0.82;;;0.82;;
12567;SDS011;6349;50.904;6.136;2022-10-16T00:24:33;0.90;;;0.90;;
12567;SDS011;6349;50.904;6.136;2022-10-16T00:26:34;1.40;;;0.80;;
12567;SDS011;6349;50.904;6.136;2022-10-16T00:28:36;2.20;;;1.00;;
12567;SDS011;6349;50.904;6.136;2022-10-16T00:30:38;1.17;;;0.70;;
12567;SDS011;6349;50.904;6.136;2022-10-16T00:32:39;0.80;;;0.80;;
12567;SDS011;6349;50.904;6.136;2022-10-16T00:34:40;0.70;;;0.70;;
12567;SDS011;6349;50.904;6.136;2022-10-16T00:36:40;0.80;;;0.80;;
12567;SDS011;6349;50.904;6.136;2022-10-16T00:38:42;0.70;;;0.70;;
12567;SDS011;6349;50.904;6.136;2022-10-16T00:40:43;0.73;;;0.73;;
12567;SDS011;6349;50.904;6.136;2022-10-16T00:42:44;0.70;;;0.70;;
12567;SDS011;6349;50.904;6.136;2022-10-16T00:44:48;0.88;;;0.80;;
12567;SDS011;6349;50.904;6.136;2022-10-16T00:46:59;0.70;;;0.70;;
12567;SDS011;6349;50.904;6.136;2022-10-16T00:49:02;0.80;;;0.80;;
12567;SDS011;6349;50.904;6.136;2022-10-16T00:51:06;0.98;;;0.90;;
12567;SDS011;6349;50.904;6.136;2022-10-16T00:53:09;1.67;;;0.90;;
12567;SDS011;6349;50.904;6.136;2022-10-16T00:55:11;2.58;;;0.90;;
12567;SDS011;6349;50.904;6.136;2022-10-16T00:57:11;1.85;;;0.80;;
12567;SDS011;6349;50.904;6.136;2022-10-16T00:59:16;0.88;;;0.88;;
12567;SDS011;6349;50.904;6.136;2022-10-16T01:01:22;1.33;;;0.80;;
12567;SDS011;6349;50.904;6.136;2022-10-16T01:03:27;0.50;;;0.50;;
12567;SDS011;6349;50.904;6.136;2022-10-16T01:05:33;1.33;;;0.63;;
12567;SDS011;6349;50.904;6.136;2022-10-16T01:07:45;0.70;;;0.70;;
12567;SDS011;6349;50.904;6.136;2022-10-16T01:12:45;1.08;;;0.60;;
12567;SDS011;6349;50.904;6.136;2022-10-16T01:15:10;0.93;;;0.80;;
12567;SDS011;6349;50.904;6.136;2022-10-16T01:17:33;0.60;;;0.60;;
12567;SDS011;6349;50.904;6.136;2022-10-16T01:20:01;1.40;;;0.73;;
12567;SDS011;6349;50.904;6.136;2022-10-16T01:22:04;2.45;;;1.00;;
12567;SDS011;6349;50.904;6.136;2022-10-16T01:31:24;0.80;;;0.68;;
12567;SDS011;6349;50.904;6.136;2022-10-16T01:33:28;1.70;;;0.52;;
12567;SDS011;6349;50.904;6.136;2022-10-16T01:35:36;1.08;;;0.70;;
12567;SDS011;6349;50.904;6.136;2022-10-16T01:37:46;1.00;;;0.50;;
12567;SDS011;6349;50.904;6.136;2022-10-16T01:39:54;0.50;;;0.50;;
12567;SDS011;6349;50.904;6.136;2022-10-16T01:42:02;0.57;;;0.50;;
12567;SDS011;6349;50.904;6.136;2022-10-16T01:44:09;2.00;;;0.80;;
12567;SDS011;6349;50.904;6.136;2022-10-16T01:46:14;0.37;;;0.33;;
12567;SDS011;6349;50.904;6.136;2022-10-16T01:48:18;1.85;;;0.52;;
12567;SDS011;6349;50.904;6.136;2022-10-16T01:50:24;0.50;;;0.50;;
12567;SDS011;6349;50.904;6.136;2022-10-16T01:52:27;1.00;;;0.60;;
12567;SDS011;6349;50.904;6.136;2022-10-16T01:54:30;0.95;;;0.60;;
12567;SDS011;6349;50.904;6.136;2022-10-16T01:56:34;0.93;;;0.50;;
12567;SDS011;6349;50.904;6.136;2022-10-16T01:58:38;0.60;;;0.60;;
12567;SDS011;6349;50.904;6.136;2022-10-16T02:00:44;0.47;;;0.47;;
12567;SDS011;6349;50.904;6.136;2022-10-16T02:02:48;1.63;;;0.60;;
12567;SDS011;6349;50.904;6.136;2022-10-16T02:04:53;0.95;;;0.50;;
12567;SDS011;6349;50.904;6.136;2022-10-16T02:06:59;0.65;;;0.65;;
12567;SDS011;6349;50.904;6.136;2022-10-16T02:09:00;0.50;;;0.50;;
12567;SDS011;6349;50.904;6.136;2022-10-16T02:11:00;0.90;;;0.70;;
12567;SDS011;6349;50.904;6.136;2022-10-16T02:13:10;0.47;;;0.45;;
12567;SDS011;6349;50.904;6.136;2022-10-16T02:15:16;0.50;;;0.50;;
12567;SDS011;6349;50.904;6.136;2022-10-16T02:17:17;1.50;;;0.60;;
12567;SDS011;6349;50.904;6.136;2022-10-16T02:19:19;0.88;;;0.57;;
12567;SDS011;6349;50.904;6.136;2022-10-16T02:21:23;0.77;;;0.60;;
12567;SDS011;6349;50.904;6.136;2022-10-16T02:23:34;0.68;;;0.65;;
12567;SDS011;6349;50.904;6.136;2022-10-16T02:25:42;0.53;;;0.53;;
12567;SDS011;6349;50.904;6.136;2022-10-16T02:27:49;2.28;;;0.60;;
12567;SDS011;6349;50.904;6.136;2022-10-16T02:29:59;2.15;;;0.52;;
12567;SDS011;6349;50.904;6.136;2022-10-16T02:32:23;0.82;;;0.63;;
12567;SDS011;6349;50.904;6.136;2022-10-16T02:34:28;2.00;;;0.70;;
12567;SDS011;6349;50.904;6.136;2022-10-16T02:36:32;0.60;;;0.60;;
12567;SDS011;6349;50.904;6.136;2022-10-16T02:38:35;0.60;;;0.60;;
12567;SDS011;6349;50.904;6.136;2022-10-16T02:40:37;1.35;;;0.60;;
12567;SDS011;6349;50.904;6.136;2022-10-16T02:42:39;1.98;;;0.70;;
12567;SDS011;6349;50.904;6.136;2022-10-16T02:44:41;0.68;;;0.68;;
12567;SDS011;6349;50.904;6.136;2022-10-16T02:46:41;2.50;;;0.75;;
12567;SDS011;6349;50.904;6.136;2022-10-16T02:48:43;1.33;;;0.70;;
12567;SDS011;6349;50.904;6.136;2022-10-16T02:50:43;1.45;;;0.55;;
12567;SDS011;6349;50.904;6.136;2022-10-16T02:52:45;1.33;;;0.70;;
12567;SDS011;6349;50.904;6.136;2022-10-16T02:54:46;0.70;;;0.68;;
12567;SDS011;6349;50.904;6.136;2022-10-16T02:56:46;0.50;;;0.50;;
12567;SDS011;6349;50.904;6.136;2022-10-16T02:58:48;0.97;;;0.60;;
12567;SDS011;6349;50.904;6.136;2022-10-16T03:00:48;0.93;;;0.70;;
12567;SDS011;6349;50.904;6.136;2022-10-16T03:02:50;0.70;;;0.67;;
12567;SDS011;6349;50.904;6.136;2022-10-16T03:04:51;0.63;;;0.60;;
12567;SDS011;6349;50.904;6.136;2022-10-16T03:06:51;0.67;;;0.67;;
12567;SDS011;6349;50.904;6.136;2022-10-16T03:08:53;0.68;;;0.68;;
12567;SDS011;6349;50.904;6.136;2022-10-16T03:10:53;1.07;;;0.70;;
12567;SDS011;6349;50.904;6.136;2022-10-16T03:12:55;1.42;;;0.80;;
12567;SDS011;6349;50.904;6.136;2022-10-16T03:14:56;1.33;;;0.70;;
12567;SDS011;6349;50.904;6.136;2022-10-16T03:16:57;0.70;;;0.70;;
12567;SDS011;6349;50.904;6.136;2022-10-16T03:18:58;0.65;;;0.57;;
12567;SDS011;6349;50.904;6.136;2022-10-16T03:20:58;0.70;;;0.70;;
12567;SDS011;6349;50.904;6.136;2022-10-16T03:23:00;1.67;;;0.90;;
12567;SDS011;6349;50.904;6.136;2022-10-16T03:25:03;0.68;;;0.68;;
12567;SDS011;6349;50.904;6.136;2022-10-16T03:27:04;1.25;;;0.80;;
12567;SDS011;6349;50.904;6.136;2022-10-16T03:29:05;1.07;;;0.67;;
12567;SDS011;6349;50.904;6.136;2022-10-16T03:31:06;0.73;;;0.73;;
12567;SDS011;6349;50.904;6.136;2022-10-16T03:33:07;0.77;;;0.75;;
12567;SDS011;6349;50.904;6.136;2022-10-16T03:35:08;1.70;;;0.80;;
12567;SDS011;6349;50.904;6.136;2022-10-16T03:37:08;1.87;;;1.00;;
12567;SDS011;6349;50.904;6.136;2022-10-16T03:39:09;1.13;;;0.80;;
12567;SDS011;6349;50.904;6.136;2022-10-16T03:41:10;1.27;;;0.70;;
12567;SDS011;6349;50.904;6.136;2022-10-16T03:43:11;0.70;;;0.70;;
12567;SDS011;6349;50.904;6.136;2022-10-16T03:45:12;2.27;;;0.80;;
12567;SDS011;6349;50.904;6.136;2022-10-16T03:47:13;2.30;;;0.85;;
12567;SDS011;6349;50.904;6.136;2022-10-16T03:49:13;1.20;;;0.80;;
12567;SDS011;6349;50.904;6.136;2022-10-16T03:51:14;1.58;;;0.73;;
12567;SDS011;6349;50.904;6.136;2022-10-16T03:53:15;1.10;;;0.80;;
12567;SDS011;6349;50.904;6.136;2022-10-16T03:55:16;2.00;;;0.80;;
12567;SDS011;6349;50.904;6.136;2022-10-16T03:57:17;1.77;;;0.90;;
12567;SDS011;6349;50.904;6.136;2022-10-16T03:59:18;1.73;;;0.90;;
12567;SDS011;6349;50.904;6.136;2022-10-16T04:01:18;2.90;;;0.90;;
12567;SDS011;6349;50.904;6.136;2022-10-16T04:03:20;1.93;;;0.90;;
12567;SDS011;6349;50.904;6.136;2022-10-16T04:05:21;0.75;;;0.70;;
12567;SDS011;6349;50.904;6.136;2022-10-16T04:07:21;0.90;;;0.77;;
12567;SDS011;6349;50.904;6.136;2022-10-16T04:09:22;0.90;;;0.90;;
12567;SDS011;6349;50.904;6.136;2022-10-16T04:11:23;1.73;;;0.97;;
12567;SDS011;6349;50.904;6.136;2022-10-16T04:13:24;1.48;;;0.85;;
12567;SDS011;6349;50.904;6.136;2022-10-16T04:15:25;0.90;;;0.90;;
12567;SDS011;6349;50.904;6.136;2022-10-16T04:17:26;1.60;;;1.00;;
12567;SDS011;6349;50.904;6.136;2022-10-16T04:19:27;2.23;;;0.77;;
12567;SDS011;6349;50.904;6.136;2022-10-16T04:21:27;1.17;;;0.80;;
12567;SDS011;6349;50.904;6.136;2022-10-16T04:23:29;0.82;;;0.80;;
12567;SDS011;6349;50.904;6.136;2022-10-16T04:25:30;1.20;;;1.10;;
12567;SDS011;6349;50.904;6.136;2022-10-16T04:27:30;0.98;;;0.90;;
12567;SDS011;6349;50.904;6.136;2022-10-16T04:29:31;1.75;;;0.82;;
12567;SDS011;6349;50.904;6.136;2022-10-16T04:31:32;0.80;;;0.80;;
12567;SDS011;6349;50.904;6.136;2022-10-16T04:33:34;1.58;;;0.75;;
12567;SDS011;6349;50.904;6.136;2022-10-16T04:35:34;0.70;;;0.70;;
12567;SDS011;6349;50.904;6.136;2022-10-16T04:37:35;0.75;;;0.70;;
12567;SDS011;6349;50.904;6.136;2022-10-16T04:39:36;1.60;;;0.80;;
12567;SDS011;6349;50.904;6.136;2022-10-16T04:41:36;1.00;;;0.90;;
12567;SDS011;6349;50.904;6.136;2022-10-16T04:43:38;0.82;;;0.80;;
12567;SDS011;6349;50.904;6.136;2022-10-16T04:45:38;1.85;;;0.93;;
12567;SDS011;6349;50.904;6.136;2022-10-16T04:47:39;1.03;;;0.90;;
12567;SDS011;6349;50.904;6.136;2022-10-16T04:49:40;0.95;;;0.70;;
12567;SDS011;6349;50.904;6.136;2022-10-16T04:51:40;1.23;;;1.10;;
12567;SDS011;6349;50.904;6.136;2022-10-16T04:53:42;0.85;;;0.85;;
12567;SDS011;6349;50.904;6.136;2022-10-16T04:55:42;0.70;;;0.70;;
12567;SDS011;6349;50.904;6.136;2022-10-16T04:57:43;0.80;;;0.80;;
12567;SDS011;6349;50.904;6.136;2022-10-16T04:59:44;1.20;;;1.10;;
12567;SDS011;6349;50.904;6.136;2022-10-16T05:01:44;1.23;;;1.03;;
12567;SDS011;6349;50.904;6.136;2022-10-16T05:03:45;1.10;;;1.00;;
12567;SDS011;6349;50.904;6.136;2022-10-16T05:05:46;0.90;;;0.90;;
12567;SDS011;6349;50.904;6.136;2022-10-16T05:07:48;1.60;;;0.82;;
12567;SDS011;6349;50.904;6.136;2022-10-16T05:09:49;2.87;;;1.00;;
12567;SDS011;6349;50.904;6.136;2022-10-16T05:11:50;0.90;;;0.90;;
12567;SDS011;6349;50.904;6.136;2022-10-16T05:13:50;1.20;;;1.10;;
12567;SDS011;6349;50.904;6.136;2022-10-16T05:15:52;1.40;;;1.30;;
12567;SDS011;6349;50.904;6.136;2022-10-16T05:17:53;1.47;;;1.17;;
12567;SDS011;6349;50.904;6.136;2022-10-16T05:19:54;1.20;;;1.10;;
12567;SDS011;6349;50.904;6.136;2022-10-16T05:21:55;0.93;;;0.93;;
12567;SDS011;6349;50.904;6.136;2022-10-16T05:23:55;1.20;;;1.10;;
12567;SDS011;6349;50.904;6.136;2022-10-16T05:25:56;1.20;;;1.10;;
12567;SDS011;6349;50.904;6.136;2022-10-16T05:27:58;1.65;;;1.10;;
12567;SDS011;6349;50.904;6.136;2022-10-16T05:29:58;1.75;;;1.25;;
12567;SDS011;6349;50.904;6.136;2022-10-16T05:31:59;1.20;;;1.10;;
12567;SDS011;6349;50.904;6.136;2022-10-16T05:34:00;1.77;;;1.23;;
12567;SDS011;6349;50.904;6.136;2022-10-16T05:36:03;0.93;;;0.93;;
12567;SDS011;6349;50.904;6.136;2022-10-16T05:38:06;1.27;;;1.10;;
12567;SDS011;6349;50.904;6.136;2022-10-16T05:40:08;1.30;;;1.00;;
12567;SDS011;6349;50.904;6.136;2022-10-16T05:42:09;1.30;;;1.13;;
12567;SDS011;6349;50.904;6.136;2022-10-16T05:44:10;1.57;;;1.30;;
12567;SDS011;6349;50.904;6.136;2022-10-16T05:46:11;1.23;;;1.00;;
12567;SDS011;6349;50.904;6.136;2022-10-16T05:48:11;1.30;;;1.20;;
12567;SDS011;6349;50.904;6.136;2022-10-16T05:50:13;1.83;;;1.35;;
12567;SDS011;6349;50.904;6.136;2022-10-16T05:52:14;1.83;;;1.30;;
12567;SDS011;6349;50.904;6.136;2022-10-16T05:54:14;1.40;;;1.30;;
12567;SDS011;6349;50.904;6.136;2022-10-16T05:56:16;1.20;;;1.10;;
12567;SDS011;6349;50.904;6.136;2022-10-16T05:58:16;1.10;;;1.00;;
12567;SDS011;6349;50.904;6.136;2022-10-16T06:00:18;1.40;;;1.20;;
12567;SDS011;6349;50.904;6.136;2022-10-16T06:02:19;1.30;;;1.13;;
12567;SDS011;6349;50.904;6.136;2022-10-16T06:04:19;1.38;;;1.10;;
12567;SDS011;6349;50.904;6.136;2022-10-16T06:06:21;1.00;;;1.00;;
12567;SDS011;6349;50.904;6.136;2022-10-16T06:08:24;1.60;;;1.10;;
12567;SDS011;6349;50.904;6.136;2022-10-16T06:10:25;1.13;;;1.10;;
12567;SDS011;6349;50.904;6.136;2022-10-16T06:12:29;1.80;;;1.30;;
12567;SDS011;6349;50.904;6.136;2022-10-16T06:14:30;1.60;;;1.10;;
12567;SDS011;6349;50.904;6.136;2022-10-16T06:16:31;1.30;;;1.20;;
12567;SDS011;6349;50.904;6.136;2022-10-16T06:18:32;2.17;;;1.20;;
12567;SDS011;6349;50.904;6.136;2022-10-16T06:20:33;1.57;;;1.20;;
12567;SDS011;6349;50.904;6.136;2022-10-16T06:22:35;3.10;;;1.33;;
12567;SDS011;6349;50.904;6.136;2022-10-16T06:24:37;3.47;;;1.30;;
12567;SDS011;6349;50.904;6.136;2022-10-16T06:26:38;1.85;;;1.20;;
12567;SDS011;6349;50.904;6.136;2022-10-16T06:28:39;1.30;;;1.10;;
12567;SDS011;6349;50.904;6.136;2022-10-16T06:30:41;3.63;;;1.30;;
12567;SDS011;6349;50.904;6.136;2022-10-16T06:32:44;4.22;;;1.40;;
12567;SDS011;6349;50.904;6.136;2022-10-16T06:34:45;1.30;;;1.20;;
12567;SDS011;6349;50.904;6.136;2022-10-16T06:36:46;2.10;;;1.60;;
12567;SDS011;6349;50.904;6.136;2022-10-16T06:38:47;1.50;;;1.30;;
12567;SDS011;6349;50.904;6.136;2022-10-16T06:40:48;1.30;;;1.20;;
12567;SDS011;6349;50.904;6.136;2022-10-16T06:42:49;1.57;;;1.43;;
12567;SDS011;6349;50.904;6.136;2022-10-16T06:44:52;2.03;;;1.30;;
12567;SDS011;6349;50.904;6.136;2022-10-16T06:46:53;2.63;;;1.40;;
12567;SDS011;6349;50.904;6.136;2022-10-16T06:48:53;2.55;;;1.40;;
12567;SDS011;6349;50.904;6.136;2022-10-16T06:53:06;2.23;;;1.40;;
12567;SDS011;6349;50.904;6.136;2022-10-16T06:55:07;2.05;;;1.30;;
12567;SDS011;6349;50.904;6.136;2022-10-16T06:57:08;2.23;;;1.20;;
12567;SDS011;6349;50.904;6.136;2022-10-16T06:59:08;1.47;;;1.30;;
12567;SDS011;6349;50.904;6.136;2022-10-16T07:01:09;3.13;;;1.50;;
12567;SDS011;6349;50.904;6.136;2022-10-16T07:03:11;1.37;;;1.20;;
12567;SDS011;6349;50.904;6.136;2022-10-16T07:05:12;1.40;;;1.23;;
12567;SDS011;6349;50.904;6.136;2022-10-16T07:07:13;3.63;;;1.60;;
12567;SDS011;6349;50.904;6.136;2022-10-16T07:09:13;1.63;;;1.30;;
12567;SDS011;6349;50.904;6.136;2022-10-16T07:11:16;1.80;;;1.30;;
12567;SDS011;6349;50.904;6.136;2022-10-16T07:13:18;2.77;;;1.47;;
12567;SDS011;6349;50.904;6.136;2022-10-16T07:15:19;2.85;;;1.58;;
12567;SDS011;6349;50.904;6.136;2022-10-16T07:17:20;2.03;;;1.43;;
12567;SDS011;6349;50.904;6.136;2022-10-16T07:19:20;2.40;;;1.50;;
12567;SDS011;6349;50.904;6.136;2022-10-16T07:21:21;2.85;;;1.40;;
12567;SDS011;6349;50.904;6.136;2022-10-16T07:23:23;1.40;;;1.20;;
12567;SDS011;6349;50.904;6.136;2022-10-16T07:25:24;1.97;;;1.50;;
12567;SDS011;6349;50.904;6.136;2022-10-16T07:27:25;1.33;;;1.20;;
12567;SDS011;6349;50.904;6.136;2022-10-16T07:29:26;1.67;;;1.50;;
12567;SDS011;6349;50.904;6.136;2022-10-16T07:31:27;1.23;;;1.20;;
12567;SDS011;6349;50.904;6.136;2022-10-16T07:33:27;2.07;;;1.40;;
12567;SDS011;6349;50.904;6.136;2022-10-16T07:35:28;2.73;;;1.40;;
12567;SDS011;6349;50.904;6.136;2022-10-16T07:37:29;3.17;;;1.40;;
12567;SDS011;6349;50.904;6.136;2022-10-16T07:39:29;2.23;;;1.23;;
12567;SDS011;6349;50.904;6.136;2022-10-16T07:41:30;2.43;;;1.30;;
12567;SDS011;6349;50.904;6.136;2022-10-16T07:43:33;1.58;;;1.30;;
12567;SDS011;6349;50.904;6.136;2022-10-16T07:45:34;1.30;;;1.20;;
12567;SDS011;6349;50.904;6.136;2022-10-16T07:47:35;2.47;;;1.30;;
12567;SDS011;6349;50.904;6.136;2022-10-16T07:49:36;2.77;;;1.23;;
12567;SDS011;6349;50.904;6.136;2022-10-16T07:51:37;2.45;;;1.23;;
12567;SDS011;6349;50.904;6.136;2022-10-16T07:53:39;1.40;;;1.20;;
12567;SDS011;6349;50.904;6.136;2022-10-16T07:55:39;1.23;;;1.00;;
12567;SDS011;6349;50.904;6.136;2022-10-16T07:57:40;1.35;;;1.00;;
12567;SDS011;6349;50.904;6.136;2022-10-16T07:59:40;1.33;;;1.00;;
12567;SDS011;6349;50.904;6.136;2022-10-16T08:01:41;1.85;;;1.27;;
12567;SDS011;6349;50.904;6.136;2022-10-16T08:03:44;1.30;;;1.00;;
12567;SDS011;6349;50.904;6.136;2022-10-16T08:05:46;4.47;;;1.30;;
12567;SDS011;6349;50.904;6.136;2022-10-16T08:07:49;1.30;;;1.20;;
12567;SDS011;6349;50.904;6.136;2022-10-16T08:09:49;1.60;;;1.00;;
12567;SDS011;6349;50.904;6.136;2022-10-16T08:11:51;1.85;;;1.05;;
12567;SDS011;6349;50.904;6.136;2022-10-16T08:13:52;3.38;;;1.38;;
12567;SDS011;6349;50.904;6.136;2022-10-16T08:15:53;1.88;;;1.15;;
12567;SDS011;6349;50.904;6.136;2022-10-16T08:17:55;2.00;;;1.15;;
12567;SDS011;6349;50.904;6.136;2022-10-16T08:19:57;1.55;;;1.00;;
12567;SDS011;6349;50.904;6.136;2022-10-16T08:21:58;1.65;;;1.02;;
12567;SDS011;6349;50.904;6.136;2022-10-16T08:23:58;1.08;;;0.98;;
12567;SDS011;6349;50.904;6.136;2022-10-16T08:26:02;2.80;;;1.10;;
12567;SDS011;6349;50.904;6.136;2022-10-16T08:28:06;1.33;;;1.02;;
12567;SDS011;6349;50.904;6.136;2022-10-16T08:30:09;2.65;;;0.90;;
12567;SDS011;6349;50.904;6.136;2022-10-16T08:32:10;1.30;;;0.90;;
12567;SDS011;6349;50.904;6.136;2022-10-16T08:34:11;1.83;;;0.93;;
12567;SDS011;6349;50.904;6.136;2022-10-16T08:36:11;1.05;;;0.75;;
12567;SDS011;6349;50.904;6.136;2022-10-16T08:38:12;5.07;;;1.00;;
12567;SDS011;6349;50.904;6.136;2022-10-16T08:40:20;0.88;;;0.80;;
12567;SDS011;6349;50.904;6.136;2022-10-16T08:42:40;1.33;;;0.90;;
12567;SDS011;6349;50.904;6.136;2022-10-16T08:47:20;1.08;;;0.93;;
12567;SDS011;6349;50.904;6.136;2022-10-16T08:49:26;0.70;;;0.70;;
12567;SDS011;6349;50.904;6.136;2022-10-16T08:51:29;1.23;;;0.95;;
12567;SDS011;6349;50.904;6.136;2022-10-16T08:53:36;0.93;;;0.70;;
12567;SDS011;6349;50.904;6.136;2022-10-16T08:55:46;1.45;;;0.90;;
12567;SDS011;6349;50.904;6.136;2022-10-16T08:57:50;1.00;;;0.70;;
12567;SDS011;6349;50.904;6.136;2022-10-16T08:59:52;1.98;;;1.20;;
12567;SDS011;6349;50.904;6.136;2022-10-16T09:02:00;0.70;;;0.70;;
12567;SDS011;6349;50.904;6.136;2022-10-16T09:04:10;1.00;;;0.88;;
12567;SDS011;6349;50.904;6.136;2022-10-16T09:12:23;1.38;;;0.70;;
12567;SDS011;6349;50.904;6.136;2022-10-16T09:16:56;2.53;;;1.00;;
12567;SDS011;6349;50.904;6.136;2022-10-16T09:21:30;1.33;;;0.75;;
12567;SDS011;6349;50.904;6.136;2022-10-16T09:23:34;1.05;;;0.88;;
12567;SDS011;6349;50.904;6.136;2022-10-16T09:25:37;1.50;;;0.90;;
12567;SDS011;6349;50.904;6.136;2022-10-16T09:27:39;1.17;;;0.80;;
12567;SDS011;6349;50.904;6.136;2022-10-16T09:29:40;1.35;;;0.63;;
12567;SDS011;6349;50.904;6.136;2022-10-16T09:31:41;1.38;;;0.80;;
12567;SDS011;6349;50.904;6.136;2022-10-16T09:33:42;1.67;;;0.90;;
12567;SDS011;6349;50.904;6.136;2022-10-16T09:35:46;3.05;;;0.95;;
12567;SDS011;6349;50.904;6.136;2022-10-16T09:37:50;1.77;;;0.65;;
12567;SDS011;6349;50.904;6.136;2022-10-16T09:39:54;2.72;;;1.20;;
12567;SDS011;6349;50.904;6.136;2022-10-16T09:41:55;1.20;;;0.80;;
12567;SDS011;6349;50.904;6.136;2022-10-16T09:43:57;2.65;;;0.77;;
12567;SDS011;6349;50.904;6.136;2022-10-16T09:46:03;2.83;;;0.82;;
12567;SDS011;6349;50.904;6.136;2022-10-16T09:48:13;3.20;;;0.80;;
12567;SDS011;6349;50.904;6.136;2022-10-16T09:50:20;1.05;;;0.57;;
12567;SDS011;6349;50.904;6.136;2022-10-16T09:52:25;1.13;;;0.60;;
12567;SDS011;6349;50.904;6.136;2022-10-16T09:54:26;1.98;;;0.70;;
12567;SDS011;6349;50.904;6.136;2022-10-16T09:56:31;1.60;;;0.70;;
12567;SDS011;6349;50.904;6.136;2022-10-16T09:58:33;1.15;;;0.70;;
12567;SDS011;6349;50.904;6.136;2022-10-16T10:00:34;1.67;;;0.73;;
12567;SDS011;6349;50.904;6.136;2022-10-16T10:02:36;2.05;;;0.65;;
12567;SDS011;6349;50.904;6.136;2022-10-16T10:04:39;2.08;;;0.70;;
12567;SDS011;6349;50.904;6.136;2022-10-16T10:06:46;2.25;;;0.65;;
12567;SDS011;6349;50.904;6.136;2022-10-16T10:08:52;1.63;;;0.63;;
12567;SDS011;6349;50.904;6.136;2022-10-16T10:10:54;1.10;;;0.70;;
12567;SDS011;6349;50.904;6.136;2022-10-16T10:12:55;1.00;;;0.68;;
12567;SDS011;6349;50.904;6.136;2022-10-16T10:14:57;1.48;;;0.50;;
12567;SDS011;6349;50.904;6.136;2022-10-16T10:19:17;0.95;;;0.60;;
12567;SDS011;6349;50.904;6.136;2022-10-16T10:21:20;2.15;;;0.80;;
12567;SDS011;6349;50.904;6.136;2022-10-16T10:23:22;1.73;;;0.80;;
12567;SDS011;6349;50.904;6.136;2022-10-16T10:25:57;1.77;;;0.80;;
12567;SDS011;6349;50.904;6.136;2022-10-16T10:27:56;1.02;;;0.68;;
12567;SDS011;6349;50.904;6.136;2022-10-16T10:32:46;1.02;;;0.70;;
12567;SDS011;6349;50.904;6.136;2022-10-16T10:35:28;1.13;;;0.80;;
12567;SDS011;6349;50.904;6.136;2022-10-16T10:37:26;2.05;;;0.70;;
12567;SDS011;6349;50.904;6.136;2022-10-16T10:39:40;1.90;;;0.65;;
12567;SDS011;6349;50.904;6.136;2022-10-16T10:44:10;1.92;;;0.80;;
12567;SDS011;6349;50.904;6.136;2022-10-16T10:46:25;1.38;;;0.70;;
12567;SDS011;6349;50.904;6.136;2022-10-16T10:48:43;1.00;;;0.80;;
12567;SDS011;6349;50.904;6.136;2022-10-16T10:50:56;1.45;;;0.60;;
12567;SDS011;6349;50.904;6.136;2022-10-16T10:55:54;1.92;;;0.80;;
12567;SDS011;6349;50.904;6.136;2022-10-16T11:00:45;1.13;;;0.60;;
12567;SDS011;6349;50.904;6.136;2022-10-16T11:03:03;1.88;;;0.70;;
12567;SDS011;6349;50.904;6.136;2022-10-16T11:07:42;1.80;;;0.70;;
12567;SDS011;6349;50.904;6.136;2022-10-16T11:09:51;1.10;;;0.70;;
12567;SDS011;6349;50.904;6.136;2022-10-16T11:11:58;1.23;;;0.73;;
12567;SDS011;6349;50.904;6.136;2022-10-16T11:14:18;0.68;;;0.63;;
12567;SDS011;6349;50.904;6.136;2022-10-16T11:16:40;0.68;;;0.60;;
12567;SDS011;6349;50.904;6.136;2022-10-16T11:18:56;1.27;;;0.75;;
12567;SDS011;6349;50.904;6.136;2022-10-16T11:21:21;0.95;;;0.60;;
12567;SDS011;6349;50.904;6.136;2022-10-16T11:26:29;1.40;;;0.50;;
12567;SDS011;6349;50.904;6.136;2022-10-16T11:28:39;1.63;;;0.60;;
12567;SDS011;6349;50.904;6.136;2022-10-16T11:30:49;0.80;;;0.60;;
12567;SDS011;6349;50.904;6.136;2022-10-16T11:35:14;1.48;;;0.65;;
12567;SDS011;6349;50.904;6.136;2022-10-16T11:37:23;1.88;;;0.85;;
12567;SDS011;6349;50.904;6.136;2022-10-16T11:39:31;1.23;;;0.60;;
12567;SDS011;6349;50.904;6.136;2022-10-16T11:41:35;0.93;;;0.70;;
12567;SDS011;6349;50.904;6.136;2022-10-16T11:43:43;0.77;;;0.55;;
12567;SDS011;6349;50.904;6.136;2022-10-16T11:45:49;1.00;;;0.70;;
12567;SDS011;6349;50.904;6.136;2022-10-16T11:51:36;1.67;;;0.88;;
12567;SDS011;6349;50.904;6.136;2022-10-16T11:56:26;1.42;;;0.80;;
12567;SDS011;6349;50.904;6.136;2022-10-16T12:00:41;0.85;;;0.50;;
12567;SDS011;6349;50.904;6.136;2022-10-16T12:07:16;0.95;;;0.52;;
12567;SDS011;6349;50.904;6.136;2022-10-16T12:09:23;1.27;;;0.70;;
12567;SDS011;6349;50.904;6.136;2022-10-16T12:16:27;1.05;;;0.40;;
12567;SDS011;6349;50.904;6.136;2022-10-16T12:18:27;2.00;;;0.70;;
12567;SDS011;6349;50.904;6.136;2022-10-16T12:20:31;1.58;;;0.82;;
12567;SDS011;6349;50.904;6.136;2022-10-16T12:22:33;0.85;;;0.60;;
12567;SDS011;6349;50.904;6.136;2022-10-16T12:24:37;1.45;;;0.93;;
12567;SDS011;6349;50.904;6.136;2022-10-16T12:26:40;1.33;;;0.57;;
12567;SDS011;6349;50.904;6.136;2022-10-16T12:28:45;1.98;;;0.73;;
12567;SDS011;6349;50.904;6.136;2022-10-16T12:30:56;0.82;;;0.55;;
12567;SDS011;6349;50.904;6.136;2022-10-16T12:33:00;0.40;;;0.40;;
12567;SDS011;6349;50.904;6.136;2022-10-16T12:35:04;0.70;;;0.60;;
12567;SDS011;6349;50.904;6.136;2022-10-16T12:37:23;1.33;;;0.82;;
12567;SDS011;6349;50.904;6.136;2022-10-16T12:39:27;0.88;;;0.52;;
12567;SDS011;6349;50.904;6.136;2022-10-16T12:41:35;1.75;;;0.63;;
12567;SDS011;6349;50.904;6.136;2022-10-16T12:43:41;0.90;;;0.68;;
12567;SDS011;6349;50.904;6.136;2022-10-16T12:45:46;1.27;;;0.60;;
12567;SDS011;6349;50.904;6.136;2022-10-16T12:47:48;0.68;;;0.45;;
12567;SDS011;6349;50.904;6.136;2022-10-16T12:49:52;3.53;;;0.70;;
12567;SDS011;6349;50.904;6.136;2022-10-16T12:54:56;2.00;;;0.52;;
12567;SDS011;6349;50.904;6.136;2022-10-16T12:57:38;0.93;;;0.60;;
12567;SDS011;6349;50.904;6.136;2022-10-16T12:59:42;2.33;;;0.73;;
12567;SDS011;6349;50.904;6.136;2022-10-16T13:02:13;0.82;;;0.60;;
12567;SDS011;6349;50.904;6.136;2022-10-16T13:09:12;0.65;;;0.52;;
12567;SDS011;6349;50.904;6.136;2022-10-16T13:11:41;1.75;;;0.75;;
12567;SDS011;6349;50.904;6.136;2022-10-16T13:13:59;1.35;;;0.63;;
12567;SDS011;6349;50.904;6.136;2022-10-16T13:16:43;1.08;;;0.68;;
12567;SDS011;6349;50.904;6.136;2022-10-16T13:18:55;0.55;;;0.50;;
12567;SDS011;6349;50.904;6.136;2022-10-16T13:21:12;1.92;;;0.60;;
12567;SDS011;6349;50.904;6.136;2022-10-16T13:23:41;1.52;;;0.52;;
12567;SDS011;6349;50.904;6.136;2022-10-16T13:28:32;0.63;;;0.60;;
12567;SDS011;6349;50.904;6.136;2022-10-16T13:31:05;1.42;;;0.52;;
12567;SDS011;6349;50.904;6.136;2022-10-16T13:33:01;0.95;;;0.60;;
12567;SDS011;6349;50.904;6.136;2022-10-16T13:35:45;0.70;;;0.60;;
12567;SDS011;6349;50.904;6.136;2022-10-16T13:37:28;1.40;;;0.55;;
12567;SDS011;6349;50.904;6.136;2022-10-16T13:39:29;1.48;;;0.73;;
12567;SDS011;6349;50.904;6.136;2022-10-16T13:41:30;1.13;;;0.70;;
12567;SDS011;6349;50.904;6.136;2022-10-16T13:43:32;0.60;;;0.60;;
12567;SDS011;6349;50.904;6.136;2022-10-16T13:45:36;0.63;;;0.60;;
12567;SDS011;6349;50.904;6.136;2022-10-16T13:47:36;1.13;;;0.55;;
12567;SDS011;6349;50.904;6.136;2022-10-16T13:49:37;0.45;;;0.45;;
12567;SDS011;6349;50.904;6.136;2022-10-16T13:51:38;1.33;;;0.70;;
12567;SDS011;6349;50.904;6.136;2022-10-16T13:53:38;0.88;;;0.65;;